createdAt,value
2023-02-05T00:00:01.549Z,86.50
2023-02-05T00:02:31.788Z,79.70
2023-02-05T00:05:01.434Z,69.50
2023-02-05T00:07:30.352Z,69.50
2023-02-05T00:09:59.596Z,68.90
2023-02-05T00:12:29.922Z,75.20
2023-02-05T00:14:59.087Z,62.50
2023-02-05T00:17:31.943Z,70.40
2023-02-05T00:20:02.184Z,66.70
2023-02-05T00:22:32.320Z,72.40
2023-02-05T00:25:01.285Z,75.20
2023-02-05T00:27:31.821Z,79.70
2023-02-05T00:30:00.524Z,99.50
2023-02-05T00:32:29.835Z,94.10
2023-02-05T00:34:58.428Z,97.40
2023-02-05T00:37:27.080Z,90.70
2023-02-05T00:39:58.607Z,94.40
2023-02-05T00:42:28.766Z,84.80
2023-02-05T00:44:58.515Z,92.00
2023-02-05T00:47:28.032Z,97.40
2023-02-05T00:49:56.868Z,113.80
2023-02-05T00:52:25.762Z,133.50
2023-02-05T00:54:57.450Z,118.20
2023-02-05T00:57:27.029Z,90.90
2023-02-05T00:59:58.771Z,94.20
2023-02-05T01:02:29.459Z,95.10
2023-02-05T01:04:58.599Z,132.40
2023-02-05T01:07:28.873Z,113.20
2023-02-05T01:09:59.425Z,109.70
2023-02-05T01:12:29.432Z,118.80
2023-02-05T01:15:06.224Z,116.40
2023-02-05T01:17:36.624Z,102.20
2023-02-05T01:20:09.688Z,97.90
2023-02-05T01:22:40.779Z,76.60
2023-02-05T01:25:09.721Z,89.50
2023-02-05T01:27:39.720Z,98.20
2023-02-05T01:30:12.092Z,100.20
2023-02-05T01:32:43.832Z,115.50
2023-02-05T01:35:12.472Z,115.90
2023-02-05T01:37:43.111Z,108.20
2023-02-05T01:40:16.248Z,98.80
2023-02-05T01:42:47.269Z,90.30
2023-02-05T01:45:23.886Z,86.30
2023-02-05T01:48:01.351Z,83.70
2023-02-05T01:50:39.355Z,100.40
2023-02-05T01:53:11.649Z,88.80
2023-02-05T01:55:48.583Z,84.70
2023-02-05T01:58:18.332Z,82.80
2023-02-05T02:00:47.946Z,68.10
2023-02-05T02:03:17.591Z,80.70
2023-02-05T02:05:47.093Z,78.60
2023-02-05T02:08:16.817Z,95.00
2023-02-05T02:10:47.713Z,104.50
2023-02-05T02:13:18.288Z,142.80
2023-02-05T02:15:49.853Z,140.40
2023-02-05T02:18:26.539Z,120.80
2023-02-05T02:21:20.866Z,141.10
2023-02-05T02:24:11.443Z,141.00
2023-02-05T02:27:12.492Z,134.00
2023-02-05T02:30:09.619Z,111.40
2023-02-05T02:32:39.138Z,94.60
2023-02-05T02:35:14.258Z,99.00
2023-02-05T02:37:48.708Z,93.50
2023-02-05T02:40:27.657Z,99.30
2023-02-05T02:43:18.067Z,94.60
2023-02-05T02:45:50.815Z,79.60
2023-02-05T02:48:23.292Z,109.30
2023-02-05T02:53:30.702Z,113.70
2023-02-05T02:56:00.758Z,123.50
2023-02-05T02:58:33.983Z,125.60
2023-02-05T03:01:03.112Z,134.90
2023-02-05T03:03:32.860Z,162.00
2023-02-05T03:06:06.215Z,142.60
2023-02-05T03:08:38.964Z,149.10
2023-02-05T03:11:12.433Z,181.70
2023-02-05T03:13:43.141Z,155.10
2023-02-05T03:16:14.376Z,155.70
2023-02-05T03:18:43.558Z,144.50
2023-02-05T03:21:17.310Z,124.10
2023-02-05T03:23:48.409Z,133.70
2023-02-05T03:26:36.741Z,140.30
2023-02-05T03:29:15.071Z,135.20
2023-02-05T03:32:19.276Z,124.30
2023-02-05T03:34:53.665Z,141.10
2023-02-05T03:37:45.166Z,103.50
2023-02-05T03:40:32.773Z,108.10
2023-02-05T03:43:15.540Z,108.80
2023-02-05T03:46:05.693Z,137.20
2023-02-05T03:48:57.286Z,138.50
2023-02-05T03:51:46.814Z,164.20
2023-02-05T03:54:22.345Z,183.40
2023-02-05T03:56:55.493Z,162.10
2023-02-05T03:59:26.495Z,141.30
2023-02-05T04:01:55.996Z,162.40
2023-02-05T04:04:25.845Z,154.70
2023-02-05T04:06:57.643Z,163.20
2023-02-05T04:09:26.744Z,115.80
2023-02-05T04:11:57.095Z,122.60
2023-02-05T04:14:26.619Z,114.80
2023-02-05T04:16:59.725Z,106.10
2023-02-05T04:19:30.190Z,97.90
2023-02-05T04:22:01.638Z,82.30
2023-02-05T04:24:35.030Z,76.90
2023-02-05T04:27:04.702Z,71.90
2023-02-05T04:29:34.314Z,71.00
2023-02-05T04:32:04.553Z,66.30
2023-02-05T04:34:33.925Z,62.70
2023-02-05T04:37:05.130Z,59.50
2023-02-05T04:39:35.225Z,57.10
2023-02-05T04:42:04.185Z,60.50
2023-02-05T04:44:38.188Z,65.80
2023-02-05T04:49:41.962Z,60.60
2023-02-05T04:52:11.785Z,62.10
2023-02-05T04:54:40.629Z,65.00
2023-02-05T04:57:10.491Z,65.70
2023-02-05T04:59:39.742Z,67.60
2023-02-05T05:02:09.453Z,69.00
2023-02-05T05:04:38.709Z,58.90
2023-02-05T05:07:10.557Z,77.60
2023-02-05T05:09:40.085Z,97.40
2023-02-05T05:12:10.541Z,106.40
2023-02-05T05:14:41.548Z,100.30
2023-02-05T05:17:15.742Z,105.90
2023-02-05T05:19:46.312Z,110.90
2023-02-05T05:22:17.711Z,111.20
2023-02-05T05:24:47.641Z,88.60
2023-02-05T05:27:19.061Z,86.90
2023-02-05T05:29:48.129Z,102.50
2023-02-05T05:32:17.649Z,101.30
2023-02-05T05:34:48.567Z,112.10
2023-02-05T05:37:19.348Z,125.90
2023-02-05T05:40:07.930Z,109.70
2023-02-05T05:42:56.907Z,117.80
2023-02-05T05:45:27.395Z,99.40
2023-02-05T05:47:58.272Z,90.00
2023-02-05T05:50:28.555Z,92.20
2023-02-05T05:53:03.002Z,71.30
2023-02-05T05:55:33.292Z,89.30
2023-02-05T05:58:04.199Z,82.80
2023-02-05T06:00:35.076Z,67.40
2023-02-05T06:03:13.991Z,53.60
2023-02-05T06:05:45.074Z,53.20
2023-02-05T06:08:16.968Z,50.80
2023-02-05T06:10:47.108Z,51.50
2023-02-05T06:13:19.041Z,48.80
2023-02-05T06:15:52.677Z,43.90
2023-02-05T06:18:25.182Z,40.20
2023-02-05T06:20:56.658Z,37.10
2023-02-05T06:23:27.836Z,36.50
2023-02-05T06:25:57.611Z,38.60
2023-02-05T06:28:27.153Z,33.30
2023-02-05T06:30:56.184Z,30.10
2023-02-05T06:33:25.235Z,32.40
2023-02-05T06:35:54.499Z,32.70
2023-02-05T06:38:23.813Z,32.80
2023-02-05T06:40:53.902Z,33.30
2023-02-05T06:43:22.756Z,27.20
2023-02-05T06:45:52.316Z,24.90
2023-02-05T06:48:23.245Z,29.30
2023-02-05T06:50:52.521Z,31.50
2023-02-05T06:53:21.695Z,25.00
2023-02-05T06:55:50.911Z,28.80
2023-02-05T06:58:19.569Z,31.10
2023-02-05T07:00:48.472Z,31.20
2023-02-05T07:03:17.207Z,43.90
2023-02-05T07:05:52.106Z,38.10
2023-02-05T07:08:20.690Z,36.10
2023-02-05T07:10:53.019Z,36.90
2023-02-05T07:13:24.828Z,28.80
2023-02-05T07:15:54.901Z,24.10
2023-02-05T07:18:24.794Z,21.50
2023-02-05T07:20:57.842Z,21.20
2023-02-05T07:23:27.136Z,22.10
2023-02-05T07:25:56.084Z,21.10
2023-02-05T07:28:25.171Z,20.80
2023-02-05T07:30:56.019Z,16.00
2023-02-05T07:33:26.221Z,16.00
2023-02-05T07:35:55.770Z,21.90
2023-02-05T07:38:27.668Z,18.70
2023-02-05T07:40:56.591Z,13.20
2023-02-05T07:43:26.245Z,14.40
2023-02-05T07:45:59.264Z,16.10
2023-02-05T07:48:28.071Z,14.00
2023-02-05T07:50:59.983Z,14.30
2023-02-05T07:53:30.582Z,17.90
2023-02-05T07:56:04.271Z,13.70
2023-02-05T07:58:34.444Z,10.50
2023-02-05T08:01:04.286Z,14.70
2023-02-05T08:03:33.574Z,11.10
2023-02-05T08:06:07.415Z,12.00
2023-02-05T08:08:36.442Z,16.90
2023-02-05T08:11:06.669Z,14.40
2023-02-05T08:13:36.623Z,12.00
2023-02-05T08:16:10.486Z,12.00
2023-02-05T08:18:40.208Z,16.20
2023-02-05T08:21:08.949Z,15.00
2023-02-05T08:23:37.742Z,9.80
2023-02-05T08:26:06.742Z,10.40
2023-02-05T08:28:37.052Z,10.20
2023-02-05T08:31:17.819Z,8.80
2023-02-05T08:33:49.861Z,8.40
2023-02-05T08:36:20.567Z,8.20
2023-02-05T08:38:50.210Z,11.90
2023-02-05T08:41:20.081Z,8.50
2023-02-05T08:43:50.917Z,9.30
2023-02-05T08:46:22.170Z,9.80
2023-02-05T08:48:53.431Z,9.60
2023-02-05T08:51:23.348Z,12.70
2023-02-05T08:53:52.175Z,15.30
2023-02-05T08:56:21.813Z,9.10
2023-02-05T08:58:51.276Z,9.10
2023-02-05T09:01:21.111Z,10.00
2023-02-05T09:03:50.727Z,12.70
2023-02-05T09:06:19.683Z,10.00
2023-02-05T09:08:49.311Z,5.50
2023-02-05T09:11:21.914Z,9.20
2023-02-05T09:13:51.540Z,10.50
2023-02-05T09:16:20.449Z,12.00
2023-02-05T09:18:50.572Z,11.20
2023-02-05T09:21:19.888Z,12.40
2023-02-05T09:23:48.429Z,8.30
2023-02-05T09:26:17.580Z,11.20
2023-02-05T09:28:46.918Z,10.30
2023-02-05T09:31:18.247Z,10.20
2023-02-05T09:33:48.077Z,10.60
2023-02-05T09:36:22.662Z,18.80
2023-02-05T09:39:02.012Z,19.70
2023-02-05T09:41:51.071Z,20.30
2023-02-05T09:44:39.234Z,10.30
2023-02-05T09:47:24.416Z,12.80
2023-02-05T09:49:59.083Z,11.50
2023-02-05T09:52:32.083Z,9.20
2023-02-05T09:55:05.162Z,10.10
2023-02-05T09:57:36.497Z,11.40
2023-02-05T10:00:06.612Z,14.10
2023-02-05T10:02:50.736Z,10.70
2023-02-05T10:05:19.719Z,10.40
2023-02-05T10:08:06.215Z,14.60
2023-02-05T10:10:46.129Z,18.50
2023-02-05T10:13:26.338Z,16.20
2023-02-05T10:16:16.343Z,16.40
2023-02-05T10:19:10.518Z,20.70
2023-02-05T10:22:12.198Z,17.00
2023-02-05T10:24:52.728Z,14.60
2023-02-05T10:27:29.114Z,22.30
2023-02-05T10:30:14.142Z,17.80
2023-02-05T10:32:55.998Z,13.50
2023-02-05T10:35:46.827Z,28.90
2023-02-05T10:38:25.099Z,28.10
2023-02-05T10:41:12.638Z,22.40
2023-02-05T10:43:54.418Z,21.30
2023-02-05T10:46:23.111Z,15.30
2023-02-05T10:48:57.512Z,31.80
2023-02-05T10:51:38.627Z,30.20
2023-02-05T10:54:15.578Z,25.60
2023-02-05T10:56:45.015Z,22.00
2023-02-05T10:59:26.988Z,18.10
2023-02-05T11:02:03.369Z,22.90
2023-02-05T11:05:00.725Z,15.30
2023-02-05T11:07:50.784Z,37.60
2023-02-05T11:10:21.949Z,45.80
2023-02-05T11:13:01.821Z,40.40
2023-02-05T11:15:32.684Z,46.90
2023-02-05T11:18:06.932Z,34.90
2023-02-05T11:20:38.380Z,28.00
2023-02-05T11:23:22.316Z,28.00
2023-02-05T11:28:24.781Z,19.90
2023-02-05T11:30:54.045Z,17.80
2023-02-05T11:33:23.334Z,44.10
2023-02-05T11:36:03.545Z,35.30
2023-02-05T11:38:44.734Z,41.30
2023-02-05T11:41:15.722Z,32.00
2023-02-05T11:43:51.421Z,32.40
2023-02-05T11:46:22.923Z,31.80
2023-02-05T11:49:02.184Z,21.10
2023-02-05T11:51:44.997Z,21.80
2023-02-05T11:54:20.635Z,21.70
2023-02-05T11:57:24.082Z,15.70
2023-02-05T11:59:57.465Z,18.30
2023-02-05T12:02:31.620Z,20.40
2023-02-05T12:05:06.464Z,24.40
2023-02-05T12:07:45.476Z,21.00
2023-02-05T12:10:44.549Z,20.30
2023-02-05T12:13:36.010Z,22.40
2023-02-05T12:16:50.534Z,26.40
2023-02-05T12:19:27.398Z,38.80
2023-02-05T12:22:13.963Z,37.90
2023-02-05T12:24:49.078Z,40.20
2023-02-05T12:27:37.406Z,30.40
2023-02-05T12:30:27.491Z,35.40
2023-02-05T12:33:01.938Z,39.50
2023-02-05T12:35:50.897Z,25.70
2023-02-05T12:38:32.554Z,37.70
2023-02-05T12:41:23.317Z,37.20
2023-02-05T12:43:53.715Z,30.20
2023-02-05T12:46:45.423Z,25.20
2023-02-05T12:49:36.140Z,22.70
2023-02-05T12:52:39.121Z,25.70
2023-02-05T12:55:29.566Z,34.70
2023-02-05T12:58:02.430Z,34.40
2023-02-05T13:00:44.658Z,33.30
2023-02-05T13:03:19.736Z,26.60
2023-02-05T13:05:53.741Z,24.80
2023-02-05T13:08:48.762Z,25.90
2023-02-05T13:11:50.810Z,33.40
2023-02-05T13:14:26.309Z,29.00
2023-02-05T13:17:12.141Z,23.20
2023-02-05T13:19:44.674Z,24.30
2023-02-05T13:22:37.165Z,24.10
2023-02-05T13:25:57.312Z,24.50
2023-02-05T13:28:43.728Z,29.30
2023-02-05T13:31:27.896Z,32.60
2023-02-05T13:34:01.744Z,30.90
2023-02-05T13:36:42.886Z,26.60
2023-02-05T13:39:34.390Z,27.50
2023-02-05T13:42:18.894Z,55.30
2023-02-05T13:45:05.183Z,56.20
2023-02-05T13:47:51.660Z,45.90
2023-02-05T13:50:48.154Z,47.90
2023-02-05T13:53:50.993Z,57.00
2023-02-05T13:56:29.463Z,75.70
2023-02-05T13:59:01.016Z,126.20
2023-02-05T14:01:35.113Z,156.50
2023-02-05T14:04:17.713Z,159.70
2023-02-05T14:06:51.806Z,183.90
2023-02-05T14:09:24.137Z,143.90
2023-02-05T14:11:58.538Z,145.90
2023-02-05T14:14:29.182Z,117.80
2023-02-05T14:17:01.004Z,99.00
2023-02-05T14:19:33.039Z,78.10
2023-02-05T14:22:04.193Z,95.00
2023-02-05T14:24:49.661Z,98.10
2023-02-05T14:27:37.838Z,106.00
2023-02-05T14:30:33.274Z,166.90
2023-02-05T14:33:30.597Z,159.90
2023-02-05T14:36:22.970Z,121.10
2023-02-05T14:39:26.648Z,98.30
2023-02-05T14:41:59.512Z,94.40
2023-02-05T14:44:36.098Z,92.60
2023-02-05T14:47:26.568Z,85.60
2023-02-05T14:50:05.966Z,102.70
2023-02-05T14:52:42.993Z,86.30
2023-02-05T14:55:14.447Z,79.10
2023-02-05T14:57:58.327Z,66.30
2023-02-05T15:00:30.095Z,42.00
2023-02-05T15:03:13.697Z,35.20
2023-02-05T15:05:47.495Z,32.00
2023-02-05T15:08:36.282Z,31.00
2023-02-05T15:11:13.599Z,30.30
2023-02-05T15:13:43.579Z,33.80
2023-02-05T15:16:13.437Z,41.70
2023-02-05T15:18:59.367Z,56.30
2023-02-05T15:21:41.061Z,53.20
2023-02-05T15:24:21.714Z,44.90
2023-02-05T15:26:52.811Z,33.40
2023-02-05T15:29:27.154Z,37.80
2023-02-05T15:31:59.572Z,41.90
2023-02-05T15:34:33.407Z,51.50
2023-02-05T15:37:18.958Z,51.50
2023-02-05T15:39:55.793Z,51.10
2023-02-05T15:42:31.857Z,60.00
2023-02-05T15:45:18.213Z,57.10
2023-02-05T15:48:19.188Z,72.30
2023-02-05T15:50:52.482Z,74.00
2023-02-05T15:53:50.834Z,84.10
2023-02-05T15:56:29.687Z,108.40
2023-02-05T15:59:12.704Z,102.10
2023-02-05T16:02:00.525Z,87.20
2023-02-05T16:04:32.265Z,90.40
2023-02-05T16:07:05.140Z,89.50
2023-02-05T16:09:36.118Z,120.40
2023-02-05T16:12:13.193Z,91.30
2023-02-05T16:14:42.297Z,87.90
2023-02-05T16:17:19.849Z,58.40
2023-02-05T16:19:53.523Z,40.90
2023-02-05T16:22:44.611Z,31.50
2023-02-05T16:25:24.281Z,37.80
2023-02-05T16:27:55.234Z,44.10
2023-02-05T16:30:34.535Z,45.30
2023-02-05T16:33:04.674Z,54.40
2023-02-05T16:35:36.467Z,58.60
2023-02-05T16:38:09.556Z,61.10
2023-02-05T16:40:46.993Z,66.50
2023-02-05T16:43:36.353Z,69.30
2023-02-05T16:46:08.611Z,90.00
2023-02-05T16:48:39.257Z,89.10
2023-02-05T16:51:34.139Z,75.70
2023-02-05T16:54:22.422Z,81.70
2023-02-05T16:56:56.959Z,68.20
2023-02-05T16:59:29.890Z,82.70
2023-02-05T17:02:03.838Z,83.70
2023-02-05T17:04:37.280Z,79.70
2023-02-05T17:07:16.915Z,99.60
2023-02-05T17:09:46.887Z,95.90
2023-02-05T17:12:20.511Z,100.80
2023-02-05T17:15:03.695Z,99.30
2023-02-05T17:17:33.753Z,104.70
2023-02-05T17:20:04.759Z,122.00
2023-02-05T17:22:35.020Z,98.10
2023-02-05T17:25:06.284Z,88.00
2023-02-05T17:27:39.735Z,77.50
2023-02-05T17:30:15.262Z,84.60
2023-02-05T17:32:47.022Z,92.50
2023-02-05T17:35:17.441Z,138.60
2023-02-05T17:37:46.069Z,133.60
2023-02-05T17:40:18.004Z,139.80
2023-02-05T17:42:47.455Z,99.60
2023-02-05T17:45:24.510Z,121.00
2023-02-05T17:47:54.736Z,89.00
2023-02-05T17:50:23.790Z,88.50
2023-02-05T17:52:52.736Z,84.30
2023-02-05T17:55:23.494Z,95.30
2023-02-05T17:57:52.479Z,104.70
2023-02-05T18:00:23.833Z,166.00
2023-02-05T18:02:53.582Z,170.50
2023-02-05T18:05:24.297Z,177.70
2023-02-05T18:08:00.396Z,158.30
2023-02-05T18:10:34.764Z,72.10
2023-02-05T18:13:05.045Z,61.60
2023-02-05T18:15:33.917Z,61.90
2023-02-05T18:18:04.024Z,54.00
2023-02-05T18:20:35.370Z,52.10
2023-02-05T18:23:04.986Z,67.40
2023-02-05T18:25:34.321Z,64.50
2023-02-05T18:28:04.668Z,69.10
2023-02-05T18:30:34.821Z,65.20
2023-02-05T18:33:04.911Z,56.00
2023-02-05T18:35:33.911Z,39.10
2023-02-05T18:38:03.759Z,56.20
2023-02-05T18:40:38.889Z,64.10
2023-02-05T18:43:08.696Z,58.50
2023-02-05T18:45:41.709Z,47.80
2023-02-05T18:48:13.060Z,47.60
2023-02-05T18:50:42.363Z,42.70
2023-02-05T18:53:14.610Z,44.00
2023-02-05T18:55:44.075Z,55.60
2023-02-05T18:58:13.628Z,41.00
2023-02-05T19:00:44.314Z,52.10
2023-02-05T19:03:15.604Z,36.50
2023-02-05T19:05:45.214Z,41.30
2023-02-05T19:08:14.996Z,38.60
2023-02-05T19:10:44.186Z,35.40
2023-02-05T19:13:15.111Z,39.80
2023-02-05T19:15:45.068Z,60.60
2023-02-05T19:18:15.461Z,53.50
2023-02-05T19:20:46.118Z,73.20
2023-02-05T19:23:16.191Z,89.30
2023-02-05T19:25:46.920Z,120.90
2023-02-05T19:28:20.151Z,133.10
2023-02-05T19:30:49.757Z,160.50
2023-02-05T19:33:19.790Z,165.70
2023-02-05T19:35:49.516Z,162.60
2023-02-05T19:38:21.630Z,131.60
2023-02-05T19:40:51.248Z,139.20
2023-02-05T19:43:21.071Z,132.50
2023-02-05T19:45:51.076Z,120.40
2023-02-05T19:48:21.107Z,86.00
2023-02-05T19:50:49.823Z,88.50
2023-02-05T19:53:19.359Z,101.60
2023-02-05T19:55:51.517Z,88.80
2023-02-05T19:58:21.247Z,111.40
2023-02-05T20:00:51.007Z,72.80
2023-02-05T20:03:20.211Z,73.60
2023-02-05T20:05:49.132Z,80.70
2023-02-05T20:08:18.285Z,58.20
2023-02-05T20:10:46.994Z,66.10
2023-02-05T20:13:16.848Z,81.80
2023-02-05T20:15:45.957Z,87.50
2023-02-05T20:18:15.817Z,84.40
2023-02-05T20:20:46.655Z,85.20
2023-02-05T20:23:17.344Z,81.70
2023-02-05T20:25:52.861Z,77.80
2023-02-05T20:28:22.584Z,65.80
2023-02-05T20:31:10.583Z,75.20
2023-02-05T20:33:39.631Z,64.00
2023-02-05T20:36:13.695Z,64.40
2023-02-05T20:38:43.287Z,67.30
2023-02-05T20:41:15.441Z,57.00
2023-02-05T20:43:44.909Z,55.00
2023-02-05T20:46:14.544Z,58.20
2023-02-05T20:48:44.600Z,63.30
2023-02-05T20:51:15.933Z,79.30
2023-02-05T20:53:45.232Z,79.10
2023-02-05T20:56:19.084Z,94.10
2023-02-05T20:58:49.733Z,55.70
2023-02-05T21:01:22.666Z,53.90
2023-02-05T21:03:55.847Z,65.50
2023-02-05T21:06:26.699Z,56.90
2023-02-05T21:08:56.435Z,65.60
2023-02-05T21:11:26.524Z,68.10
2023-02-05T21:13:56.577Z,61.90
2023-02-05T21:16:26.492Z,66.70
2023-02-05T21:18:56.097Z,62.20
2023-02-05T21:21:29.386Z,63.00
2023-02-05T21:24:01.561Z,58.10
2023-02-05T21:26:37.364Z,56.90
2023-02-05T21:29:10.641Z,53.70
2023-02-05T21:31:42.184Z,55.20
2023-02-05T21:34:16.191Z,53.40
2023-02-05T21:36:46.058Z,53.70
2023-02-05T21:39:16.365Z,57.40
2023-02-05T21:41:47.768Z,57.10
2023-02-05T21:44:19.149Z,63.40
2023-02-05T21:46:49.431Z,65.00
2023-02-05T21:49:19.032Z,72.50
2023-02-05T21:51:48.947Z,57.60
2023-02-05T21:54:17.623Z,57.40
2023-02-05T21:56:46.816Z,61.30
2023-02-05T21:59:16.682Z,52.00
2023-02-05T22:01:46.843Z,49.60
2023-02-05T22:04:16.995Z,61.30
2023-02-05T22:06:46.023Z,53.70
2023-02-05T22:09:17.838Z,53.50
2023-02-05T22:11:49.391Z,58.00
2023-02-05T22:14:18.469Z,55.60
2023-02-05T22:16:46.895Z,56.60
2023-02-05T22:19:20.437Z,60.30
2023-02-05T22:21:51.097Z,68.70
2023-02-05T22:24:25.394Z,72.10
2023-02-05T22:26:55.078Z,72.70
2023-02-05T22:29:26.208Z,66.60
2023-02-05T22:31:56.632Z,62.00
2023-02-05T22:34:26.100Z,59.50
2023-02-05T22:36:55.510Z,57.40
2023-02-05T22:39:24.440Z,58.10
2023-02-05T22:41:53.316Z,66.80
2023-02-05T22:44:23.052Z,54.30
2023-02-05T22:46:51.560Z,60.70
2023-02-05T22:49:21.273Z,66.80
2023-02-05T22:51:51.792Z,53.00
2023-02-05T22:54:21.441Z,63.30
2023-02-05T22:56:51.236Z,51.00
2023-02-05T22:59:21.053Z,61.70
2023-02-05T23:01:49.675Z,55.70
2023-02-05T23:04:18.167Z,56.40
2023-02-05T23:06:47.886Z,56.00
2023-02-05T23:09:18.074Z,63.10
2023-02-05T23:11:49.061Z,48.50
2023-02-05T23:14:19.720Z,58.80
2023-02-05T23:16:50.579Z,54.80
2023-02-05T23:19:20.518Z,73.50
2023-02-05T23:21:49.993Z,92.70
2023-02-05T23:24:19.295Z,101.10
2023-02-05T23:26:51.004Z,77.70
2023-02-05T23:29:19.964Z,91.10
2023-02-05T23:31:51.519Z,75.00
2023-02-05T23:34:20.740Z,63.50
2023-02-05T23:36:50.151Z,65.10
2023-02-05T23:39:19.041Z,65.40
2023-02-05T23:41:48.618Z,73.70
2023-02-05T23:44:21.171Z,56.00
2023-02-05T23:46:50.826Z,62.80
2023-02-05T23:49:24.260Z,57.10
2023-02-05T23:54:24.267Z,62.20
2023-02-05T23:56:53.099Z,58.40
2023-02-05T23:59:21.965Z,53.20
